Guarani, Argentina
Current Conditions -  °F | °C
As of 2:00 PM on Sunday 23 Nov 2014 (Local Time) from SARP Reporting Station
Clear Clear  
Wind Chill: 82°   Ceiling: Unl
Heat Index: 82°   Visibility: 6mi
Dew Point: 54°   Wind: 3mph
Humidity: 37%   Direction: 50°NE
Pressure: 29.91"   Gusts: NA
Location:  27.52°S, 55.17°W
Report Text: SARP 231700Z 05003KT CAVOK 28/12 Q1013
Loading
Personal Weather Stations






























Interactive Weather Map New forecast layout! Learn more

10-Day Weather Forecast

Advertisements
Track Severe Weather on mobile